Annville, Pennsylvania
Current Conditions -  °F | °C
As of 2:58 AM on Wednesday 22 Oct 2014 (Local Time) from KMUI Reporting Station
Overcast Overcast  
Wind Chill: 54°   Ceiling: 12000
Heat Index: 54°   Visibility: 10mi
Dew Point: 54°   Wind: 8mph
Humidity: 99%   Direction: 50°NE
Pressure: 29.9"   Gusts: NA
Location:  40.33°N, 76.51°W
Report Text: KMUI 220658Z AUTO 05007KT 10SM SCT080 OVC120 12/12 A2990 RMK AO2 SLP127 T01230122 $
Loading
Personal Weather Stations






























Interactive Weather Map New forecast layout! Learn more

10-Day Weather Forecast

Advertisements
Track Severe Weather on mobile